sensor_id;sensor_type;location;lat;lon;timestamp;pressure;altitude;pressure_sealevel;temperature;humidity
64632;BME280;58358;50.936;0.246;2024-03-08T00:00:42;100722.48;;;2.71;100.00
64632;BME280;58358;50.936;0.246;2024-03-08T00:03:08;100720.86;;;2.86;100.00
64632;BME280;58358;50.936;0.246;2024-03-08T00:05:34;100718.70;;;2.29;100.00
64632;BME280;58358;50.936;0.246;2024-03-08T00:07:59;100717.17;;;2.65;100.00
64632;BME280;58358;50.936;0.246;2024-03-08T00:10:25;100706.87;;;1.73;100.00
64632;BME280;58358;50.936;0.246;2024-03-08T00:12:50;100699.75;;;2.58;100.00
64632;BME280;58358;50.936;0.246;2024-03-08T00:15:17;100698.28;;;1.79;100.00
64632;BME280;58358;50.936;0.246;2024-03-08T00:17:42;100696.63;;;2.12;100.00
64632;BME280;58358;50.936;0.246;2024-03-08T00:20:07;100691.25;;;2.31;100.00
64632;BME280;58358;50.936;0.246;2024-03-08T00:22:32;100691.36;;;2.19;100.00
64632;BME280;58358;50.936;0.246;2024-03-08T00:24:57;100689.30;;;2.82;100.00
64632;BME280;58358;50.936;0.246;2024-03-08T00:27:23;100689.96;;;2.20;100.00
64632;BME280;58358;50.936;0.246;2024-03-08T00:29:48;100687.51;;;2.62;100.00
64632;BME280;58358;50.936;0.246;2024-03-08T00:32:14;100684.81;;;3.06;100.00
64632;BME280;58358;50.936;0.246;2024-03-08T00:34:39;100688.70;;;3.11;100.00
64632;BME280;58358;50.936;0.246;2024-03-08T00:37:05;100686.14;;;2.89;100.00
64632;BME280;58358;50.936;0.246;2024-03-08T00:39:30;100685.83;;;1.94;100.00
64632;BME280;58358;50.936;0.246;2024-03-08T00:41:56;100685.77;;;2.45;100.00
64632;BME280;58358;50.936;0.246;2024-03-08T00:44:21;100680.40;;;2.13;100.00
64632;BME280;58358;50.936;0.246;2024-03-08T00:46:46;100679.55;;;2.20;100.00
64632;BME280;58358;50.936;0.246;2024-03-08T00:49:12;100677.02;;;2.72;100.00
64632;BME280;58358;50.936;0.246;2024-03-08T00:51:37;100676.56;;;2.34;100.00
64632;BME280;58358;50.936;0.246;2024-03-08T00:54:03;100676.17;;;2.07;100.00
64632;BME280;58358;50.936;0.246;2024-03-08T00:56:28;100668.26;;;3.39;100.00
64632;BME280;58358;50.936;0.246;2024-03-08T00:58:54;100673.78;;;2.64;100.00
64632;BME280;58358;50.936;0.246;2024-03-08T01:01:19;100668.87;;;2.73;100.00
64632;BME280;58358;50.936;0.246;2024-03-08T01:03:44;100664.49;;;2.39;100.00
64632;BME280;58358;50.936;0.246;2024-03-08T01:06:11;100667.32;;;1.94;100.00
64632;BME280;58358;50.936;0.246;2024-03-08T01:08:36;100662.66;;;2.44;100.00
64632;BME280;58358;50.936;0.246;2024-03-08T01:11:01;100659.11;;;3.08;100.00
64632;BME280;58358;50.936;0.246;2024-03-08T01:13:27;100656.53;;;2.76;100.00
64632;BME280;58358;50.936;0.246;2024-03-08T01:15:52;100649.69;;;2.58;100.00
64632;BME280;58358;50.936;0.246;2024-03-08T01:18:17;100643.95;;;3.38;100.00
64632;BME280;58358;50.936;0.246;2024-03-08T01:20:42;100641.65;;;2.38;100.00
64632;BME280;58358;50.936;0.246;2024-03-08T01:23:08;100636.85;;;2.09;100.00
64632;BME280;58358;50.936;0.246;2024-03-08T01:25:34;100629.90;;;3.52;100.00
64632;BME280;58358;50.936;0.246;2024-03-08T01:27:59;100633.08;;;2.21;100.00
64632;BME280;58358;50.936;0.246;2024-03-08T01:30:25;100631.19;;;2.56;100.00
64632;BME280;58358;50.936;0.246;2024-03-08T01:32:50;100622.14;;;2.83;100.00
64632;BME280;58358;50.936;0.246;2024-03-08T01:35:16;100620.76;;;3.06;100.00
64632;BME280;58358;50.936;0.246;2024-03-08T01:37:41;100615.95;;;3.34;100.00
64632;BME280;58358;50.936;0.246;2024-03-08T01:40:08;100614.68;;;3.15;100.00
64632;BME280;58358;50.936;0.246;2024-03-08T01:42:33;100614.04;;;3.10;100.00
64632;BME280;58358;50.936;0.246;2024-03-08T01:44:58;100608.94;;;3.20;100.00
64632;BME280;58358;50.936;0.246;2024-03-08T01:47:24;100604.88;;;2.49;100.00
64632;BME280;58358;50.936;0.246;2024-03-08T01:49:49;100606.73;;;4.20;100.00
64632;BME280;58358;50.936;0.246;2024-03-08T01:52:14;100603.17;;;3.67;100.00
64632;BME280;58358;50.936;0.246;2024-03-08T01:54:40;100599.00;;;2.87;100.00
64632;BME280;58358;50.936;0.246;2024-03-08T01:57:05;100591.89;;;2.92;100.00
64632;BME280;58358;50.936;0.246;2024-03-08T01:59:31;100591.53;;;3.17;100.00
64632;BME280;58358;50.936;0.246;2024-03-08T02:02:01;100586.00;;;2.86;100.00
64632;BME280;58358;50.936;0.246;2024-03-08T02:04:22;100587.60;;;2.85;100.00
64632;BME280;58358;50.936;0.246;2024-03-08T02:06:47;100583.24;;;3.09;100.00
64632;BME280;58358;50.936;0.246;2024-03-08T02:09:12;100578.03;;;3.17;100.00
64632;BME280;58358;50.936;0.246;2024-03-08T02:11:40;100573.21;;;2.04;100.00
64632;BME280;58358;50.936;0.246;2024-03-08T02:14:03;100567.58;;;2.03;100.00
64632;BME280;58358;50.936;0.246;2024-03-08T02:16:28;100558.99;;;2.66;100.00
64632;BME280;58358;50.936;0.246;2024-03-08T02:18:54;100555.57;;;1.48;100.00
64632;BME280;58358;50.936;0.246;2024-03-08T02:21:19;100547.36;;;2.61;100.00
64632;BME280;58358;50.936;0.246;2024-03-08T02:23:44;100545.76;;;1.70;100.00
64632;BME280;58358;50.936;0.246;2024-03-08T02:26:10;100541.05;;;1.62;100.00
64632;BME280;58358;50.936;0.246;2024-03-08T02:28:35;100538.87;;;1.91;100.00
64632;BME280;58358;50.936;0.246;2024-03-08T02:31:01;100532.56;;;1.74;100.00
64632;BME280;58358;50.936;0.246;2024-03-08T02:33:27;100525.99;;;1.93;100.00
64632;BME280;58358;50.936;0.246;2024-03-08T02:35:52;100523.23;;;2.30;100.00
64632;BME280;58358;50.936;0.246;2024-03-08T02:38:18;100525.17;;;1.21;100.00
64632;BME280;58358;50.936;0.246;2024-03-08T02:40:43;100518.94;;;1.75;100.00
64632;BME280;58358;50.936;0.246;2024-03-08T02:43:08;100514.87;;;1.84;100.00
64632;BME280;58358;50.936;0.246;2024-03-08T02:45:33;100506.37;;;2.31;100.00
64632;BME280;58358;50.936;0.246;2024-03-08T02:47:59;100505.68;;;2.39;100.00
64632;BME280;58358;50.936;0.246;2024-03-08T02:50:24;100504.06;;;2.38;100.00
64632;BME280;58358;50.936;0.246;2024-03-08T02:52:50;100513.41;;;1.87;100.00
64632;BME280;58358;50.936;0.246;2024-03-08T02:55:20;100505.04;;;2.10;100.00
64632;BME280;58358;50.936;0.246;2024-03-08T02:57:41;100500.08;;;2.03;100.00
64632;BME280;58358;50.936;0.246;2024-03-08T03:00:08;100498.08;;;2.69;100.00
64632;BME280;58358;50.936;0.246;2024-03-08T03:02:33;100498.39;;;2.43;100.00
64632;BME280;58358;50.936;0.246;2024-03-08T03:04:57;100491.68;;;2.01;100.00
64632;BME280;58358;50.936;0.246;2024-03-08T03:07:23;100493.67;;;1.49;100.00
64632;BME280;58358;50.936;0.246;2024-03-08T03:09:48;100482.60;;;2.38;100.00
64632;BME280;58358;50.936;0.246;2024-03-08T03:12:14;100481.45;;;2.35;100.00
64632;BME280;58358;50.936;0.246;2024-03-08T03:14:40;100481.99;;;1.70;100.00
64632;BME280;58358;50.936;0.246;2024-03-08T03:17:05;100471.01;;;2.12;100.00
64632;BME280;58358;50.936;0.246;2024-03-08T03:19:30;100465.72;;;1.74;100.00
64632;BME280;58358;50.936;0.246;2024-03-08T03:21:56;100459.84;;;1.72;100.00
64632;BME280;58358;50.936;0.246;2024-03-08T03:24:21;100461.30;;;1.73;100.00
64632;BME280;58358;50.936;0.246;2024-03-08T03:26:46;100463.83;;;2.31;100.00
64632;BME280;58358;50.936;0.246;2024-03-08T03:29:12;100456.53;;;1.70;100.00
64632;BME280;58358;50.936;0.246;2024-03-08T03:31:37;100458.44;;;1.37;100.00
64632;BME280;58358;50.936;0.246;2024-03-08T03:34:03;100456.46;;;1.22;100.00
64632;BME280;58358;50.936;0.246;2024-03-08T03:36:28;100452.97;;;1.60;100.00
64632;BME280;58358;50.936;0.246;2024-03-08T03:38:53;100447.75;;;2.02;100.00
64632;BME280;58358;50.936;0.246;2024-03-08T03:41:18;100448.19;;;1.70;100.00
64632;BME280;58358;50.936;0.246;2024-03-08T03:43:43;100445.68;;;1.93;100.00
64632;BME280;58358;50.936;0.246;2024-03-08T03:46:08;100447.98;;;1.41;100.00
64632;BME280;58358;50.936;0.246;2024-03-08T03:48:34;100441.54;;;2.01;100.00
64632;BME280;58358;50.936;0.246;2024-03-08T03:50:59;100433.93;;;2.26;100.00
64632;BME280;58358;50.936;0.246;2024-03-08T03:53:25;100426.03;;;1.98;100.00
64632;BME280;58358;50.936;0.246;2024-03-08T03:55:50;100423.80;;;0.89;100.00
64632;BME280;58358;50.936;0.246;2024-03-08T03:58:16;100415.57;;;1.75;100.00
64632;BME280;58358;50.936;0.246;2024-03-08T04:00:42;100419.20;;;1.25;100.00
64632;BME280;58358;50.936;0.246;2024-03-08T04:03:08;100413.01;;;0.68;100.00
64632;BME280;58358;50.936;0.246;2024-03-08T04:05:33;100411.18;;;1.12;100.00
64632;BME280;58358;50.936;0.246;2024-03-08T04:07:58;100407.27;;;0.94;100.00
64632;BME280;58358;50.936;0.246;2024-03-08T04:10:23;100400.72;;;0.86;100.00
64632;BME280;58358;50.936;0.246;2024-03-08T04:12:49;100397.50;;;0.37;100.00
64632;BME280;58358;50.936;0.246;2024-03-08T04:15:14;100394.26;;;0.23;100.00
64632;BME280;58358;50.936;0.246;2024-03-08T04:17:40;100391.82;;;0.77;100.00
64632;BME280;58358;50.936;0.246;2024-03-08T04:20:06;100395.95;;;1.49;100.00
64632;BME280;58358;50.936;0.246;2024-03-08T04:22:31;100387.26;;;1.71;100.00
64632;BME280;58358;50.936;0.246;2024-03-08T04:24:56;100390.69;;;1.83;100.00
64632;BME280;58358;50.936;0.246;2024-03-08T04:27:22;100383.65;;;1.90;100.00
64632;BME280;58358;50.936;0.246;2024-03-08T04:29:47;100380.28;;;1.79;100.00
64632;BME280;58358;50.936;0.246;2024-03-08T04:32:12;100379.66;;;1.83;100.00
64632;BME280;58358;50.936;0.246;2024-03-08T04:34:38;100384.35;;;1.61;100.00
64632;BME280;58358;50.936;0.246;2024-03-08T04:37:03;100379.49;;;1.43;100.00
64632;BME280;58358;50.936;0.246;2024-03-08T04:39:29;100380.50;;;1.60;100.00
64632;BME280;58358;50.936;0.246;2024-03-08T04:41:55;100373.62;;;1.98;100.00
64632;BME280;58358;50.936;0.246;2024-03-08T04:44:20;100378.20;;;1.76;100.00
64632;BME280;58358;50.936;0.246;2024-03-08T04:46:46;100379.04;;;1.52;100.00
64632;BME280;58358;50.936;0.246;2024-03-08T04:49:11;100374.89;;;1.94;100.00
64632;BME280;58358;50.936;0.246;2024-03-08T04:51:36;100368.84;;;1.09;100.00
64632;BME280;58358;50.936;0.246;2024-03-08T04:54:02;100366.64;;;1.24;100.00
64632;BME280;58358;50.936;0.246;2024-03-08T04:56:27;100359.05;;;0.76;100.00
64632;BME280;58358;50.936;0.246;2024-03-08T04:58:53;100348.56;;;0.47;100.00
64632;BME280;58358;50.936;0.246;2024-03-08T05:01:18;100352.06;;;1.09;100.00
64632;BME280;58358;50.936;0.246;2024-03-08T05:03:44;100349.00;;;1.24;100.00
64632;BME280;58358;50.936;0.246;2024-03-08T05:06:09;100350.89;;;0.66;100.00
64632;BME280;58358;50.936;0.246;2024-03-08T05:08:34;100346.49;;;0.97;100.00
64632;BME280;58358;50.936;0.246;2024-03-08T05:11:00;100340.12;;;1.11;100.00
64632;BME280;58358;50.936;0.246;2024-03-08T05:13:25;100337.26;;;1.37;100.00
64632;BME280;58358;50.936;0.246;2024-03-08T05:15:51;100335.25;;;1.20;100.00
64632;BME280;58358;50.936;0.246;2024-03-08T05:18:16;100331.03;;;1.39;100.00
64632;BME280;58358;50.936;0.246;2024-03-08T05:20:42;100326.25;;;1.39;100.00
64632;BME280;58358;50.936;0.246;2024-03-08T05:23:07;100323.30;;;0.99;100.00
64632;BME280;58358;50.936;0.246;2024-03-08T05:25:33;100321.97;;;1.45;100.00
64632;BME280;58358;50.936;0.246;2024-03-08T05:27:58;100317.92;;;1.65;100.00
64632;BME280;58358;50.936;0.246;2024-03-08T05:30:23;100313.27;;;1.19;100.00
64632;BME280;58358;50.936;0.246;2024-03-08T05:32:49;100308.26;;;0.74;100.00
64632;BME280;58358;50.936;0.246;2024-03-08T05:35:14;100307.17;;;1.17;100.00
64632;BME280;58358;50.936;0.246;2024-03-08T05:37:39;100301.20;;;1.02;100.00
64632;BME280;58358;50.936;0.246;2024-03-08T05:40:06;100305.73;;;0.71;100.00
64632;BME280;58358;50.936;0.246;2024-03-08T05:42:31;100301.41;;;1.61;100.00
64632;BME280;58358;50.936;0.246;2024-03-08T05:44:56;100301.87;;;1.56;100.00
64632;BME280;58358;50.936;0.246;2024-03-08T05:47:22;100300.97;;;1.16;100.00
64632;BME280;58358;50.936;0.246;2024-03-08T05:49:47;100299.32;;;1.70;100.00
64632;BME280;58358;50.936;0.246;2024-03-08T05:52:13;100292.84;;;1.33;100.00
64632;BME280;58358;50.936;0.246;2024-03-08T05:54:38;100293.27;;;1.17;100.00
64632;BME280;58358;50.936;0.246;2024-03-08T05:57:04;100290.15;;;0.70;100.00
64632;BME280;58358;50.936;0.246;2024-03-08T05:59:28;100286.27;;;0.78;100.00
64632;BME280;58358;50.936;0.246;2024-03-08T06:01:54;100280.70;;;0.66;100.00
64632;BME280;58358;50.936;0.246;2024-03-08T06:04:19;100283.37;;;0.65;100.00
64632;BME280;58358;50.936;0.246;2024-03-08T06:06:45;100275.75;;;1.06;100.00
64632;BME280;58358;50.936;0.246;2024-03-08T06:09:11;100278.13;;;0.26;100.00
64632;BME280;58358;50.936;0.246;2024-03-08T06:11:36;100272.96;;;0.53;100.00
64632;BME280;58358;50.936;0.246;2024-03-08T06:14:01;100273.63;;;0.38;100.00
64632;BME280;58358;50.936;0.246;2024-03-08T06:16:27;100273.62;;;0.20;100.00
64632;BME280;58358;50.936;0.246;2024-03-08T06:18:52;100272.56;;;0.43;100.00
64632;BME280;58358;50.936;0.246;2024-03-08T06:21:18;100270.67;;;1.09;100.00
64632;BME280;58358;50.936;0.246;2024-03-08T06:23:43;100277.45;;;0.03;100.00
64632;BME280;58358;50.936;0.246;2024-03-08T06:26:09;100275.56;;;1.07;100.00
64632;BME280;58358;50.936;0.246;2024-03-08T06:28:34;100274.94;;;1.04;100.00
64632;BME280;58358;50.936;0.246;2024-03-08T06:31:00;100278.16;;;0.49;100.00
64632;BME280;58358;50.936;0.246;2024-03-08T06:33:26;100277.09;;;1.10;100.00
64632;BME280;58358;50.936;0.246;2024-03-08T06:35:51;100277.93;;;0.49;100.00
64632;BME280;58358;50.936;0.246;2024-03-08T06:38:16;100273.18;;;0.68;100.00
64632;BME280;58358;50.936;0.246;2024-03-08T06:40:42;100280.03;;;0.77;100.00
64632;BME280;58358;50.936;0.246;2024-03-08T06:43:08;100284.14;;;0.76;100.00
64632;BME280;58358;50.936;0.246;2024-03-08T06:45:33;100287.97;;;1.49;100.00
64632;BME280;58358;50.936;0.246;2024-03-08T06:47:58;100286.71;;;1.17;100.00
64632;BME280;58358;50.936;0.246;2024-03-08T06:50:24;100285.61;;;1.50;100.00
64632;BME280;58358;50.936;0.246;2024-03-08T06:52:49;100285.17;;;0.67;100.00
64632;BME280;58358;50.936;0.246;2024-03-08T06:55:15;100289.98;;;1.27;100.00
64632;BME280;58358;50.936;0.246;2024-03-08T06:57:40;100288.16;;;1.26;100.00
64632;BME280;58358;50.936;0.246;2024-03-08T07:00:07;100285.62;;;1.19;100.00
64632;BME280;58358;50.936;0.246;2024-03-08T07:02:31;100281.69;;;1.95;100.00
64632;BME280;58358;50.936;0.246;2024-03-08T07:04:57;100285.83;;;1.98;100.00
64632;BME280;58358;50.936;0.246;2024-03-08T07:07:22;100287.70;;;1.99;100.00
64632;BME280;58358;50.936;0.246;2024-03-08T07:09:47;100285.94;;;1.43;100.00
64632;BME280;58358;50.936;0.246;2024-03-08T07:12:13;100293.39;;;1.39;100.00
64632;BME280;58358;50.936;0.246;2024-03-08T07:14:39;100289.40;;;2.18;100.00
64632;BME280;58358;50.936;0.246;2024-03-08T07:17:04;100287.50;;;1.62;100.00
64632;BME280;58358;50.936;0.246;2024-03-08T07:19:29;100286.11;;;1.50;100.00
64632;BME280;58358;50.936;0.246;2024-03-08T07:21:55;100284.07;;;1.82;100.00
64632;BME280;58358;50.936;0.246;2024-03-08T07:24:20;100281.36;;;1.43;100.00
64632;BME280;58358;50.936;0.246;2024-03-08T07:26:45;100281.94;;;1.48;100.00
64632;BME280;58358;50.936;0.246;2024-03-08T07:29:11;100282.58;;;1.60;100.00
64632;BME280;58358;50.936;0.246;2024-03-08T07:31:35;100278.65;;;1.32;100.00
64632;BME280;58358;50.936;0.246;2024-03-08T07:34:01;100282.86;;;2.13;100.00
64632;BME280;58358;50.936;0.246;2024-03-08T07:36:26;100278.14;;;2.54;100.00
64632;BME280;58358;50.936;0.246;2024-03-08T07:38:51;100274.76;;;2.70;100.00
64632;BME280;58358;50.936;0.246;2024-03-08T07:41:17;100272.94;;;1.99;100.00
64632;BME280;58358;50.936;0.246;2024-03-08T07:43:42;100274.28;;;2.72;100.00
64632;BME280;58358;50.936;0.246;2024-03-08T07:46:09;100273.42;;;2.59;100.00
64632;BME280;58358;50.936;0.246;2024-03-08T07:48:34;100272.84;;;2.05;100.00
64632;BME280;58358;50.936;0.246;2024-03-08T07:51:00;100275.23;;;2.48;100.00
64632;BME280;58358;50.936;0.246;2024-03-08T07:53:25;100274.89;;;1.67;100.00
64632;BME280;58358;50.936;0.246;2024-03-08T07:55:51;100276.13;;;2.17;100.00
64632;BME280;58358;50.936;0.246;2024-03-08T07:58:16;100270.96;;;2.09;100.00
64632;BME280;58358;50.936;0.246;2024-03-08T08:00:42;100268.51;;;1.78;100.00
64632;BME280;58358;50.936;0.246;2024-03-08T08:03:07;100261.80;;;1.98;100.00
64632;BME280;58358;50.936;0.246;2024-03-08T08:05:32;100266.21;;;2.17;100.00
64632;BME280;58358;50.936;0.246;2024-03-08T08:07:57;100257.00;;;2.38;100.00
64632;BME280;58358;50.936;0.246;2024-03-08T08:10:22;100255.55;;;2.58;100.00
64632;BME280;58358;50.936;0.246;2024-03-08T08:12:48;100250.99;;;2.98;100.00
64632;BME280;58358;50.936;0.246;2024-03-08T08:15:13;100246.56;;;2.66;100.00
64632;BME280;58358;50.936;0.246;2024-03-08T08:17:38;100243.25;;;2.85;100.00
64632;BME280;58358;50.936;0.246;2024-03-08T08:20:04;100240.99;;;3.57;100.00
64632;BME280;58358;50.936;0.246;2024-03-08T08:22:29;100233.22;;;3.14;100.00
64632;BME280;58358;50.936;0.246;2024-03-08T08:24:55;100226.77;;;2.40;100.00
64632;BME280;58358;50.936;0.246;2024-03-08T08:27:20;100230.35;;;2.66;100.00
64632;BME280;58358;50.936;0.246;2024-03-08T08:29:45;100227.10;;;3.00;100.00
64632;BME280;58358;50.936;0.246;2024-03-08T08:32:12;100219.09;;;2.33;100.00
64632;BME280;58358;50.936;0.246;2024-03-08T08:34:37;100222.32;;;2.80;100.00
64632;BME280;58358;50.936;0.246;2024-03-08T08:37:02;100212.34;;;2.48;100.00
64632;BME280;58358;50.936;0.246;2024-03-08T08:39:28;100211.51;;;2.88;100.00
64632;BME280;58358;50.936;0.246;2024-03-08T08:41:54;100205.78;;;3.20;100.00
64632;BME280;58358;50.936;0.246;2024-03-08T08:44:19;100203.35;;;2.36;100.00
64632;BME280;58358;50.936;0.246;2024-03-08T08:46:44;100202.60;;;3.12;100.00
64632;BME280;58358;50.936;0.246;2024-03-08T08:49:10;100206.71;;;3.27;100.00
64632;BME280;58358;50.936;0.246;2024-03-08T08:51:35;100203.10;;;3.63;100.00
64632;BME280;58358;50.936;0.246;2024-03-08T08:54:00;100202.40;;;3.04;100.00
64632;BME280;58358;50.936;0.246;2024-03-08T08:56:25;100199.94;;;3.40;100.00
64632;BME280;58358;50.936;0.246;2024-03-08T08:58:51;100198.84;;;4.22;100.00
64632;BME280;58358;50.936;0.246;2024-03-08T09:01:16;100195.30;;;3.58;100.00
64632;BME280;58358;50.936;0.246;2024-03-08T09:03:41;100193.92;;;3.41;100.00
64632;BME280;58358;50.936;0.246;2024-03-08T09:06:07;100187.00;;;3.06;100.00
64632;BME280;58358;50.936;0.246;2024-03-08T09:08:32;100184.77;;;3.44;100.00
64632;BME280;58358;50.936;0.246;2024-03-08T09:10:58;100180.04;;;3.46;100.00
64632;BME280;58358;50.936;0.246;2024-03-08T09:13:23;100173.07;;;2.41;100.00
64632;BME280;58358;50.936;0.246;2024-03-08T09:15:49;100173.11;;;3.93;100.00
64632;BME280;58358;50.936;0.246;2024-03-08T09:18:14;100172.35;;;3.17;100.00
64632;BME280;58358;50.936;0.246;2024-03-08T09:20:39;100162.53;;;3.90;100.00
64632;BME280;58358;50.936;0.246;2024-03-08T09:23:05;100162.44;;;4.45;100.00
64632;BME280;58358;50.936;0.246;2024-03-08T09:25:30;100155.97;;;3.02;100.00
64632;BME280;58358;50.936;0.246;2024-03-08T09:27:56;100150.20;;;3.10;100.00
64632;BME280;58358;50.936;0.246;2024-03-08T09:30:22;100142.83;;;3.33;100.00
64632;BME280;58358;50.936;0.246;2024-03-08T09:32:48;100136.97;;;4.21;100.00
64632;BME280;58358;50.936;0.246;2024-03-08T09:35:13;100134.35;;;4.58;100.00
64632;BME280;58358;50.936;0.246;2024-03-08T09:37:38;100131.04;;;4.83;100.00
64632;BME280;58358;50.936;0.246;2024-03-08T09:40:04;100122.45;;;4.27;100.00
64632;BME280;58358;50.936;0.246;2024-03-08T09:42:29;100114.52;;;3.92;100.00
64632;BME280;58358;50.936;0.246;2024-03-08T09:44:54;100104.13;;;3.48;100.00
64632;BME280;58358;50.936;0.246;2024-03-08T09:47:22;100107.04;;;3.68;100.00
64632;BME280;58358;50.936;0.246;2024-03-08T09:49:45;100101.43;;;3.28;100.00
64632;BME280;58358;50.936;0.246;2024-03-08T09:52:12;100100.03;;;3.49;100.00
64632;BME280;58358;50.936;0.246;2024-03-08T09:54:37;100094.38;;;3.24;100.00
64632;BME280;58358;50.936;0.246;2024-03-08T09:57:04;100084.59;;;3.19;100.00
64632;BME280;58358;50.936;0.246;2024-03-08T09:59:27;100078.43;;;3.64;100.00
64632;BME280;58358;50.936;0.246;2024-03-08T10:01:53;100076.55;;;3.83;100.00
64632;BME280;58358;50.936;0.246;2024-03-08T10:04:18;100067.24;;;3.59;100.00
64632;BME280;58358;50.936;0.246;2024-03-08T10:06:44;100065.52;;;3.48;100.00
64632;BME280;58358;50.936;0.246;2024-03-08T10:09:09;100057.34;;;3.74;100.00
64632;BME280;58358;50.936;0.246;2024-03-08T10:11:35;100053.59;;;4.55;100.00
64632;BME280;58358;50.936;0.246;2024-03-08T10:14:01;100052.20;;;3.66;100.00
64632;BME280;58358;50.936;0.246;2024-03-08T10:16:26;100051.91;;;3.43;100.00
64632;BME280;58358;50.936;0.246;2024-03-08T10:18:51;100042.99;;;3.91;100.00
64632;BME280;58358;50.936;0.246;2024-03-08T10:21:17;100041.96;;;3.64;100.00
64632;BME280;58358;50.936;0.246;2024-03-08T10:23:42;100045.14;;;4.13;100.00
64632;BME280;58358;50.936;0.246;2024-03-08T10:26:13;100041.04;;;4.66;100.00
64632;BME280;58358;50.936;0.246;2024-03-08T10:28:33;100036.36;;;3.82;100.00
64632;BME280;58358;50.936;0.246;2024-03-08T10:30:59;100033.01;;;3.99;100.00
64632;BME280;58358;50.936;0.246;2024-03-08T10:33:24;100037.32;;;4.19;100.00
64632;BME280;58358;50.936;0.246;2024-03-08T10:35:50;100029.88;;;5.02;100.00
64632;BME280;58358;50.936;0.246;2024-03-08T10:38:16;100025.77;;;4.89;100.00
64632;BME280;58358;50.936;0.246;2024-03-08T10:40:40;100023.63;;;4.67;100.00
64632;BME280;58358;50.936;0.246;2024-03-08T10:43:07;100017.27;;;4.82;100.00
64632;BME280;58358;50.936;0.246;2024-03-08T10:45:35;100010.47;;;5.09;100.00
64632;BME280;58358;50.936;0.246;2024-03-08T10:48:08;100012.06;;;5.02;100.00
64632;BME280;58358;50.936;0.246;2024-03-08T10:50:22;99998.77;;;4.17;100.00
64632;BME280;58358;50.936;0.246;2024-03-08T10:52:49;100000.35;;;3.87;100.00
64632;BME280;58358;50.936;0.246;2024-03-08T10:55:14;99997.14;;;3.87;100.00
64632;BME280;58358;50.936;0.246;2024-03-08T10:57:38;99996.88;;;3.44;100.00
64632;BME280;58358;50.936;0.246;2024-03-08T11:00:04;99982.98;;;3.52;100.00
64632;BME280;58358;50.936;0.246;2024-03-08T11:02:30;99986.62;;;4.34;100.00
64632;BME280;58358;50.936;0.246;2024-03-08T11:04:55;99985.66;;;3.54;100.00
64632;BME280;58358;50.936;0.246;2024-03-08T11:07:20;99983.73;;;3.79;100.00
64632;BME280;58358;50.936;0.246;2024-03-08T11:09:48;99986.45;;;4.40;100.00
64632;BME280;58358;50.936;0.246;2024-03-08T11:12:21;99981.67;;;4.58;100.00
64632;BME280;58358;50.936;0.246;2024-03-08T11:14:43;99981.87;;;4.28;100.00
64632;BME280;58358;50.936;0.246;2024-03-08T11:17:02;99978.24;;;4.45;100.00
64632;BME280;58358;50.936;0.246;2024-03-08T11:19:30;99974.69;;;4.47;100.00
64632;BME280;58358;50.936;0.246;2024-03-08T11:21:59;99963.59;;;4.13;100.00
64632;BME280;58358;50.936;0.246;2024-03-08T11:24:18;99972.28;;;4.92;100.00
64632;BME280;58358;50.936;0.246;2024-03-08T11:26:45;99965.64;;;5.31;100.00
64632;BME280;58358;50.936;0.246;2024-03-08T11:31:34;99958.38;;;5.22;100.00
64632;BME280;58358;50.936;0.246;2024-03-08T11:34:00;99958.74;;;5.56;100.00
64632;BME280;58358;50.936;0.246;2024-03-08T11:36:25;99956.46;;;5.60;100.00
64632;BME280;58358;50.936;0.246;2024-03-08T11:38:51;99947.75;;;5.64;100.00
64632;BME280;58358;50.936;0.246;2024-03-08T11:41:17;99945.00;;;4.77;100.00
64632;BME280;58358;50.936;0.246;2024-03-08T11:43:41;99939.90;;;5.59;100.00
64632;BME280;58358;50.936;0.246;2024-03-08T11:46:08;99938.67;;;5.68;100.00
64632;BME280;58358;50.936;0.246;2024-03-08T11:48:33;99936.90;;;5.78;100.00
64632;BME280;58358;50.936;0.246;2024-03-08T11:51:00;99938.46;;;6.09;100.00
64632;BME280;58358;50.936;0.246;2024-03-08T11:53:24;99926.23;;;5.73;100.00
64632;BME280;58358;50.936;0.246;2024-03-08T11:55:49;99919.82;;;5.41;100.00
64632;BME280;58358;50.936;0.246;2024-03-08T11:58:15;99921.23;;;5.65;100.00
64632;BME280;58358;50.936;0.246;2024-03-08T12:00:40;99919.65;;;5.78;100.00
64632;BME280;58358;50.936;0.246;2024-03-08T12:03:07;99908.96;;;5.06;100.00
64632;BME280;58358;50.936;0.246;2024-03-08T12:05:31;99911.18;;;4.87;100.00
64632;BME280;58358;50.936;0.246;2024-03-08T12:07:57;99903.87;;;5.20;100.00
64632;BME280;58358;50.936;0.246;2024-03-08T12:10:22;99908.51;;;5.24;100.00
64632;BME280;58358;50.936;0.246;2024-03-08T12:12:49;99891.65;;;5.27;100.00
64632;BME280;58358;50.936;0.246;2024-03-08T12:15:14;99893.43;;;4.93;100.00
64632;BME280;58358;50.936;0.246;2024-03-08T12:17:39;99886.65;;;5.14;100.00
64632;BME280;58358;50.936;0.246;2024-03-08T12:20:13;99891.86;;;5.06;100.00
64632;BME280;58358;50.936;0.246;2024-03-08T12:22:30;99890.11;;;5.81;100.00
64632;BME280;58358;50.936;0.246;2024-03-08T12:25:03;99882.48;;;5.80;100.00
64632;BME280;58358;50.936;0.246;2024-03-08T12:27:20;99887.80;;;6.03;100.00
64632;BME280;58358;50.936;0.246;2024-03-08T12:29:45;99884.93;;;5.73;100.00
64632;BME280;58358;50.936;0.246;2024-03-08T12:32:11;99880.88;;;5.89;100.00
64632;BME280;58358;50.936;0.246;2024-03-08T12:34:37;99874.56;;;5.19;100.00
64632;BME280;58358;50.936;0.246;2024-03-08T12:37:02;99872.43;;;5.82;100.00
64632;BME280;58358;50.936;0.246;2024-03-08T12:39:27;99872.55;;;5.55;100.00
64632;BME280;58358;50.936;0.246;2024-03-08T12:41:53;99867.49;;;6.48;100.00
64632;BME280;58358;50.936;0.246;2024-03-08T12:44:18;99866.07;;;6.47;100.00